Time;durP1;ratioP1;P1;durP2;ratioP2;P2;SDS_P1;SDS_P2;PMS_P1;PMS_P2;Temp;Humidity;BMP_temperature;BMP_pressure;BME280_temperature;BME280_humidity;BME280_pressure;Samples;Min_cycle;Max_cycle;Signal;HPM_P1;HPM_P2
2022/12/28 00:00:18;;;;;;;4.10;1.77;;;;;;;4.85;95.45;101567.06;4983543;28;20092;-72
2022/12/28 00:02:44;;;;;;;8.82;1.52;;;;;;;5.01;95.85;101554.00;4985512;28;20041;-73
2022/12/28 00:05:09;;;;;;;8.40;1.75;;;;;;;5.02;96.86;101553.91;4985777;28;20413;-72
2022/12/28 00:07:35;;;;;;;5.60;1.17;;;;;;;5.03;97.53;101552.19;4982799;28;20049;-72
2022/12/28 00:10:00;;;;;;;5.60;1.67;;;;;;;5.17;97.67;101543.56;5001908;28;20034;-72
2022/12/28 00:12:26;;;;;;;6.85;1.75;;;;;;;5.13;98.10;101542.13;4965909;28;20038;-72
2022/12/28 00:14:51;;;;;;;6.85;1.55;;;;;;;5.07;98.66;101515.06;4999654;28;20045;-72
2022/12/28 00:17:17;;;;;;;6.38;1.38;;;;;;;5.03;100.00;101529.06;4986115;28;20029;-73
2022/12/28 00:19:42;;;;;;;6.82;2.28;;;;;;;5.09;100.00;101509.81;4984315;28;20030;-72
2022/12/28 00:22:08;;;;;;;5.13;1.20;;;;;;;5.06;100.00;101503.94;5000813;28;20038;-73
2022/12/28 00:24:33;;;;;;;5.88;1.65;;;;;;;5.06;100.00;101513.41;4984463;28;20066;-73
2022/12/28 00:26:59;;;;;;;8.20;2.25;;;;;;;5.14;100.00;101505.19;4999692;28;20038;-72
2022/12/28 00:29:24;;;;;;;6.82;1.77;;;;;;;5.05;100.00;101507.44;4981883;28;20114;-72
2022/12/28 00:31:50;;;;;;;8.80;2.10;;;;;;;5.29;99.19;101499.00;4982739;28;20439;-72
2022/12/28 00:34:15;;;;;;;7.22;1.70;;;;;;;5.25;99.32;101487.28;4972429;28;20038;-73
2022/12/28 00:36:41;;;;;;;8.45;1.70;;;;;;;5.34;98.58;101475.53;4980855;28;20043;-73
2022/12/28 00:39:08;;;;;;;4.35;1.60;;;;;;;5.43;98.64;101474.91;4975555;28;20035;-72
2022/12/28 00:41:33;;;;;;;8.50;1.52;;;;;;;5.36;98.57;101466.78;4985467;28;20054;-73
2022/12/28 00:43:59;;;;;;;6.78;1.60;;;;;;;5.34;99.50;101467.84;4987055;28;20035;-72
2022/12/28 00:46:24;;;;;;;6.45;1.50;;;;;;;5.32;99.88;101457.66;4988287;28;20038;-73
2022/12/28 00:48:50;;;;;;;5.75;1.67;;;;;;;5.28;100.00;101456.22;4986903;28;20034;-73
2022/12/28 00:51:18;;;;;;;5.65;1.70;;;;;;;5.37;100.00;101440.16;4989550;28;20424;-72
2022/12/28 00:53:44;;;;;;;9.77;1.60;;;;;;;5.42;100.00;101443.22;4984126;28;20034;-73
2022/12/28 00:56:12;;;;;;;9.18;1.88;;;;;;;5.28;100.00;101432.25;4990412;28;20125;-72
2022/12/28 00:58:38;;;;;;;5.15;1.70;;;;;;;5.26;100.00;101437.50;4988692;28;20022;-72
2022/12/28 01:01:09;;;;;;;8.60;1.98;;;;;;;5.26;100.00;101433.16;4974326;28;20031;-72
2022/12/28 01:03:34;;;;;;;5.43;2.75;;;;;;;5.24;100.00;101424.75;4972162;28;20121;-73
2022/12/28 01:06:05;;;;;;;6.95;2.28;;;;;;;5.31;100.00;101421.75;4992156;28;20069;-73
2022/12/28 01:08:30;;;;;;;8.38;2.15;;;;;;;5.34;100.00;101411.25;5004942;28;20034;-73
2022/12/28 01:10:56;;;;;;;6.13;1.77;;;;;;;5.31;100.00;101409.69;4985367;28;20049;-72
2022/12/28 01:13:21;;;;;;;7.53;1.95;;;;;;;5.41;100.00;101395.28;5005656;28;20034;-73
2022/12/28 01:15:46;;;;;;;7.57;2.35;;;;;;;5.38;100.00;101395.47;4987650;28;20043;-73
2022/12/28 01:18:12;;;;;;;8.55;2.05;;;;;;;5.46;100.00;101382.94;4991405;28;20038;-72
2022/12/28 01:20:39;;;;;;;6.88;1.90;;;;;;;5.58;100.00;101375.28;5005287;28;20520;-72
2022/12/28 01:23:05;;;;;;;5.85;2.10;;;;;;;5.49;100.00;101383.63;5001046;28;20081;-72
2022/12/28 01:25:32;;;;;;;4.38;1.58;;;;;;;5.55;100.00;101368.56;4986436;28;20137;-72
2022/12/28 01:27:58;;;;;;;7.15;1.70;;;;;;;5.61;100.00;101367.31;4967399;28;20031;-73
2022/12/28 01:30:23;;;;;;;5.80;1.88;;;;;;;5.55;100.00;101360.03;4980891;28;20065;-73
2022/12/28 01:32:49;;;;;;;5.25;1.48;;;;;;;5.56;100.00;101367.66;4966649;28;20043;-73
2022/12/28 01:35:14;;;;;;;7.47;1.67;;;;;;;5.52;100.00;101370.53;4957010;28;20034;-73
2022/12/28 01:37:40;;;;;;;6.45;2.00;;;;;;;5.70;100.00;101365.84;4964058;28;20609;-73
2022/12/28 01:40:05;;;;;;;6.40;1.65;;;;;;;5.72;100.00;101369.13;4974343;28;20058;-73
2022/12/28 01:42:31;;;;;;;5.53;1.65;;;;;;;5.85;100.00;101352.66;4985401;28;20033;-72
2022/12/28 01:45:14;;;;;;;5.15;1.30;;;;;;;5.87;99.78;101362.88;4986165;28;20034;-73
2022/12/28 01:47:40;;;;;;;8.25;1.80;;;;;;;5.89;99.67;101357.59;4987414;28;20034;-72
2022/12/28 01:50:14;;;;;;;6.15;1.38;;;;;;;5.83;100.00;101358.88;4987982;28;20100;-73
2022/12/28 01:53:00;;;;;;;5.28;1.63;;;;;;;5.91;100.00;101350.59;4983801;28;20045;-73
2022/12/28 01:55:33;;;;;;;4.10;1.88;;;;;;;5.83;99.94;101357.13;4987049;28;20049;-73
2022/12/28 01:57:58;;;;;;;5.22;2.00;;;;;;;5.82;100.00;101350.34;4987207;28;20085;-73
2022/12/28 02:00:25;;;;;;;7.63;1.85;;;;;;;5.89;99.85;101342.97;4969165;28;20168;-72
2022/12/28 02:02:51;;;;;;;8.25;1.45;;;;;;;5.95;100.00;101341.72;4984551;28;20061;-72
2022/12/28 02:05:18;;;;;;;3.03;1.40;;;;;;;6.08;100.00;101337.31;4983415;28;20077;-72
2022/12/28 02:08:20;;;;;;;4.75;1.35;;;;;;;5.88;100.00;101333.63;5004668;28;20038;-72
2022/12/28 02:10:46;;;;;;;6.55;1.30;;;;;;;5.92;99.92;101314.44;4966252;28;20118;-73
2022/12/28 02:13:15;;;;;;;7.10;1.60;;;;;;;5.99;99.72;101325.13;4990866;28;20732;-72
2022/12/28 02:15:41;;;;;;;5.30;1.75;;;;;;;5.96;99.57;101327.94;4981362;28;20042;-73
2022/12/28 02:18:07;;;;;;;4.82;1.33;;;;;;;6.05;100.00;101319.53;4988278;28;20041;-72
2022/12/28 02:20:45;;;;;;;3.80;1.90;;;;;;;5.97;100.00;101314.97;4968193;28;20050;-73
2022/12/28 02:23:33;;;;;;;5.75;1.35;;;;;;;6.03;99.07;101318.84;4948294;28;20046;-72
2022/12/28 02:26:41;;;;;;;7.20;1.70;;;;;;;6.05;99.50;101306.69;4980695;28;20378;-73
2022/12/28 02:29:10;;;;;;;7.30;2.47;;;;;;;6.20;98.63;101302.13;4981269;28;20116;-72
2022/12/28 02:31:59;;;;;;;8.70;1.80;;;;;;;6.18;98.81;101301.44;4967270;28;20181;-73
2022/12/28 02:34:39;;;;;;;4.05;1.35;;;;;;;6.21;98.78;101293.47;4972776;28;20454;-73
2022/12/28 02:37:14;;;;;;;2.92;1.50;;;;;;;6.09;99.00;101284.09;4988293;28;20034;-73
2022/12/28 02:40:05;;;;;;;3.85;1.15;;;;;;;6.11;99.53;101274.50;4982723;28;20070;-74
2022/12/28 02:42:33;;;;;;;3.83;1.80;;;;;;;6.17;99.27;101261.97;4987236;28;20496;-72
2022/12/28 02:50:49;;;;;;;3.17;1.45;;;;;;;6.34;98.87;101247.81;4986825;28;20042;-73
2022/12/28 02:53:50;;;;;;;7.70;1.70;;;;;;;6.50;98.07;101237.16;4983795;28;20038;-73
2022/12/28 02:56:51;;;;;;;5.75;1.60;;;;;;;6.40;97.87;101241.38;5002790;28;20042;-72
2022/12/28 02:59:49;;;;;;;7.53;1.85;;;;;;;6.48;98.02;101223.56;4983861;28;20042;-73
2022/12/28 03:02:33;;;;;;;7.50;1.60;;;;;;;6.39;97.74;101209.63;4982673;28;20061;-73
2022/12/28 03:05:07;;;;;;;5.90;1.52;;;;;;;6.55;97.16;101222.13;4997564;28;20026;-73
2022/12/28 03:08:18;;;;;;;6.90;1.73;;;;;;;6.43;97.68;101205.88;4998267;28;20042;-73
2022/12/28 03:10:50;;;;;;;5.80;1.80;;;;;;;6.49;97.54;101209.75;4985389;28;20077;-73
2022/12/28 03:13:42;;;;;;;4.70;1.48;;;;;;;6.54;97.04;101193.94;5001636;28;20046;-73
2022/12/28 03:16:28;;;;;;;3.13;1.33;;;;;;;6.62;97.33;101197.53;4950688;28;20043;-73
2022/12/28 03:33:07;;;;;;;11.27;1.60;;;;;;;6.72;96.86;101181.34;4963556;28;20515;-73
2022/12/28 03:36:12;;;;;;;5.43;1.70;;;;;;;6.79;96.62;101178.16;4994832;28;20042;-72
2022/12/28 03:39:01;;;;;;;5.50;1.48;;;;;;;6.72;96.73;101165.88;4917697;28;20057;-72
2022/12/28 03:41:33;;;;;;;6.40;1.88;;;;;;;6.79;97.38;101167.84;4984759;28;20477;-73
2022/12/28 03:44:20;;;;;;;3.95;1.50;;;;;;;6.92;96.40;101165.13;4970462;28;20404;-72
2022/12/28 03:46:54;;;;;;;7.18;1.85;;;;;;;6.76;97.17;101173.28;4983649;28;20039;-71
2022/12/28 03:49:22;;;;;;;5.05;1.65;;;;;;;6.89;97.19;101164.53;4981939;28;20385;-71
2022/12/28 03:51:49;;;;;;;6.00;1.30;;;;;;;6.80;97.30;101156.63;4998839;28;20037;-70
2022/12/28 03:54:18;;;;;;;4.95;1.92;;;;;;;6.89;97.46;101154.22;4996981;28;20532;-72
2022/12/28 03:56:46;;;;;;;5.32;1.85;;;;;;;6.87;97.12;101148.38;4968005;28;20499;-71
2022/12/28 03:59:13;;;;;;;4.28;1.75;;;;;;;6.99;97.32;101157.72;4990400;28;20054;-71
2022/12/28 04:01:42;;;;;;;4.28;1.75;;;;;;;6.89;97.65;101149.06;4947242;28;20030;-72
2022/12/28 04:04:08;;;;;;;7.43;1.92;;;;;;;6.90;97.67;101141.22;4977573;28;20042;-72
2022/12/28 04:06:34;;;;;;;5.78;1.67;;;;;;;6.94;98.02;101137.44;4967822;28;20039;-70
2022/12/28 04:09:00;;;;;;;5.05;1.88;;;;;;;7.00;97.93;101120.66;4962460;28;20345;-70
2022/12/28 04:11:29;;;;;;;4.47;1.88;;;;;;;7.06;97.36;101115.00;4977874;28;20031;-71
2022/12/28 04:13:55;;;;;;;9.25;1.98;;;;;;;7.15;97.05;101110.84;4978382;28;20523;-72
2022/12/28 04:16:22;;;;;;;4.93;2.00;;;;;;;7.14;97.36;101119.53;4950919;28;20023;-71
2022/12/28 04:18:48;;;;;;;4.47;1.77;;;;;;;7.14;97.51;101122.94;4985332;28;20023;-71
2022/12/28 04:21:14;;;;;;;5.20;1.73;;;;;;;7.13;98.02;101117.91;4967432;28;20031;-71
2022/12/28 04:23:42;;;;;;;7.57;2.00;;;;;;;7.08;98.02;101110.53;4980552;28;20034;-72
2022/12/28 04:26:26;;;;;;;7.50;1.70;;;;;;;7.24;97.36;101104.94;4982157;28;20027;-71
2022/12/28 04:28:53;;;;;;;3.38;1.70;;;;;;;7.14;97.45;101111.78;4954669;28;20045;-71
2022/12/28 04:31:33;;;;;;;8.02;1.70;;;;;;;7.06;98.23;101109.84;4990380;28;20041;-70
2022/12/28 04:34:09;;;;;;;5.18;1.67;;;;;;;7.06;97.82;101099.53;4986919;28;20034;-71
2022/12/28 04:36:38;;;;;;;4.80;1.70;;;;;;;7.14;97.90;101102.31;5003667;28;20033;-71
2022/12/28 04:39:08;;;;;;;6.88;1.92;;;;;;;7.20;96.91;101098.41;5003179;28;20389;-72
2022/12/28 04:41:34;;;;;;;3.22;1.65;;;;;;;7.29;96.53;101091.66;4973293;28;20075;-71
2022/12/28 04:43:59;;;;;;;8.15;1.75;;;;;;;7.20;96.72;101090.69;4982672;28;20125;-71
2022/12/28 04:46:26;;;;;;;5.43;1.77;;;;;;;7.33;96.33;101062.09;4989167;28;20037;-71
2022/12/28 04:48:51;;;;;;;4.97;1.65;;;;;;;7.31;96.77;101088.03;4990810;28;20129;-72
2022/12/28 04:51:27;;;;;;;5.38;1.70;;;;;;;7.34;97.80;101092.91;5005604;28;20056;-71
2022/12/28 04:53:54;;;;;;;6.63;1.35;;;;;;;7.25;98.33;101096.25;4980822;28;20042;-71
2022/12/28 04:56:21;;;;;;;5.68;1.75;;;;;;;7.37;97.79;101094.44;4989529;28;20096;-71
2022/12/28 04:58:48;;;;;;;3.63;1.70;;;;;;;7.24;98.00;101104.13;4986561;28;20041;-72
2022/12/28 05:01:16;;;;;;;4.90;1.70;;;;;;;7.31;97.36;101092.34;4990447;28;20496;-72
2022/12/28 05:03:43;;;;;;;4.93;1.60;;;;;;;7.33;97.47;101090.47;4986971;28;20034;-72
2022/12/28 05:06:17;;;;;;;7.47;1.73;;;;;;;7.39;97.52;101095.13;4983347;28;20038;-71
2022/12/28 05:08:43;;;;;;;5.65;1.33;;;;;;;7.37;97.85;101092.66;4981609;28;20035;-71
2022/12/28 05:11:20;;;;;;;10.73;1.80;;;;;;;7.42;97.06;101079.38;4982183;28;20121;-72
2022/12/28 05:13:46;;;;;;;12.38;2.10;;;;;;;7.42;97.25;101089.69;4979010;28;20030;-72
2022/12/28 05:16:15;;;;;;;4.80;1.70;;;;;;;7.41;97.93;101083.72;4987826;28;20077;-72
2022/12/28 05:18:40;;;;;;;6.40;1.80;;;;;;;7.36;98.31;101083.28;4986279;28;20030;-71
2022/12/28 05:21:09;;;;;;;5.43;1.63;;;;;;;7.41;98.25;101082.91;4971211;28;20041;-71
2022/12/28 05:23:36;;;;;;;2.10;1.13;;;;;;;7.49;97.90;101067.59;5000742;28;20038;-71
2022/12/28 05:26:08;;;;;;;6.28;1.55;;;;;;;7.41;97.99;101064.84;4970423;28;20035;-71
2022/12/28 05:28:33;;;;;;;5.00;1.73;;;;;;;7.51;97.70;101073.44;4981063;28;21813;-71
2022/12/28 05:31:01;;;;;;;3.35;1.40;;;;;;;7.51;97.46;101065.69;4969189;28;20026;-71
2022/12/28 05:33:31;;;;;;;5.70;1.73;;;;;;;7.56;97.26;101067.91;4982534;28;20035;-72
2022/12/28 05:36:02;;;;;;;7.07;2.03;;;;;;;7.54;97.64;101073.19;4964014;28;20093;-72
2022/12/28 05:38:28;;;;;;;3.45;1.30;;;;;;;7.54;97.72;101069.81;4982148;28;20541;-72
2022/12/28 05:40:53;;;;;;;2.22;1.20;;;;;;;7.52;98.26;101067.34;4982931;28;20035;-71
2022/12/28 05:43:19;;;;;;;4.05;1.25;;;;;;;7.51;98.92;101073.44;4983302;28;20034;-72
2022/12/28 05:45:44;;;;;;;7.32;1.52;;;;;;;7.56;98.64;101073.88;4964892;28;20085;-72
2022/12/28 05:48:10;;;;;;;5.40;1.45;;;;;;;7.52;99.11;101074.28;4969358;28;20037;-72
2022/12/28 05:50:35;;;;;;;5.70;1.70;;;;;;;7.55;99.16;101072.25;4976409;28;20046;-72
2022/12/28 05:53:01;;;;;;;6.43;1.48;;;;;;;7.55;99.47;101067.09;4989035;28;20042;-72
2022/12/28 05:55:26;;;;;;;4.90;1.90;;;;;;;7.51;99.71;101068.28;4968667;28;20105;-72
2022/12/28 05:57:54;;;;;;;3.45;1.10;;;;;;;7.47;100.00;101064.31;4952853;28;20031;-72
2022/12/28 06:00:20;;;;;;;5.88;1.40;;;;;;;7.53;100.00;101058.63;4965388;28;20046;-72
2022/12/28 06:02:45;;;;;;;8.02;1.40;;;;;;;7.58;99.59;101055.69;4964701;28;20038;-72
2022/12/28 06:05:11;;;;;;;2.60;1.27;;;;;;;7.52;99.46;101046.69;4981095;28;20045;-71
2022/12/28 06:07:36;;;;;;;3.67;1.50;;;;;;;7.54;99.48;101044.00;4983550;28;20042;-71
2022/12/28 06:10:02;;;;;;;2.08;1.20;;;;;;;7.64;99.32;101047.41;4980887;28;20038;-72
2022/12/28 06:12:28;;;;;;;6.78;1.40;;;;;;;7.59;99.45;101031.50;4966979;28;21251;-71
2022/12/28 06:14:53;;;;;;;6.53;1.30;;;;;;;7.63;99.13;101038.06;4986964;28;20035;-72
2022/12/28 06:17:19;;;;;;;7.65;1.40;;;;;;;7.60;99.28;101026.22;4966045;28;20038;-72
2022/12/28 06:19:44;;;;;;;5.03;1.30;;;;;;;7.63;99.21;101030.31;4979929;28;20077;-72
2022/12/28 06:22:10;;;;;;;4.93;1.20;;;;;;;7.69;98.71;101029.78;4962266;28;21033;-72
2022/12/28 06:24:35;;;;;;;6.07;1.20;;;;;;;7.65;99.63;101035.31;4962729;28;20034;-71
2022/12/28 06:27:00;;;;;;;4.43;1.20;;;;;;;7.75;99.30;101031.03;4966360;28;20119;-72
2022/12/28 06:29:26;;;;;;;2.83;1.38;;;;;;;7.70;99.49;101035.75;4962882;28;20042;-72
2022/12/28 06:31:53;;;;;;;17.83;4.97;;;;;;;7.75;99.67;101031.03;4949707;28;20456;-71
2022/12/28 06:34:19;;;;;;;32.80;10.02;;;;;;;7.75;99.74;101026.66;4965524;28;20498;-72
2022/12/28 06:36:45;;;;;;;12.07;3.78;;;;;;;7.63;100.00;101035.47;4967153;28;20030;-72
2022/12/28 06:39:13;;;;;;;8.93;3.30;;;;;;;7.72;100.00;101021.78;4964146;28;20050;-72
2022/12/28 06:41:39;;;;;;;43.08;11.73;;;;;;;7.57;100.00;101035.97;4966814;28;20065;-72
2022/12/28 06:44:09;;;;;;;58.47;16.88;;;;;;;7.63;100.00;101032.91;4963825;28;20078;-71
2022/12/28 06:46:35;;;;;;;30.05;9.90;;;;;;;7.62;100.00;101035.59;4980889;28;20482;-71
2022/12/28 06:49:01;;;;;;;23.65;5.72;;;;;;;7.67;100.00;101026.50;4964116;28;20458;-71
2022/12/28 06:51:29;;;;;;;9.75;3.63;;;;;;;7.68;100.00;101032.50;4966315;28;20123;-71
2022/12/28 06:53:55;;;;;;;11.38;4.63;;;;;;;7.48;100.00;101039.34;4962179;28;20069;-71
2022/12/28 06:56:24;;;;;;;7.10;3.03;;;;;;;7.51;100.00;101024.41;4978597;28;20482;-71
2022/12/28 06:58:50;;;;;;;5.75;1.90;;;;;;;7.52;100.00;101026.06;4950571;28;20037;-71
2022/12/28 07:01:17;;;;;;;5.80;1.90;;;;;;;7.46;100.00;101036.06;4983577;28;20022;-72
2022/12/28 07:03:43;;;;;;;7.07;2.30;;;;;;;7.48;100.00;101027.28;4961134;28;20078;-71
2022/12/28 07:06:10;;;;;;;7.30;2.83;;;;;;;7.71;100.00;101027.88;4960134;28;20027;-71
2022/12/28 07:08:36;;;;;;;5.00;1.27;;;;;;;7.67;100.00;101036.03;4968428;28;20500;-72
2022/12/28 07:11:10;;;;;;;5.57;2.90;;;;;;;7.68;100.00;101035.88;5001434;28;20242;-72
2022/12/28 07:13:37;;;;;;;6.07;1.30;;;;;;;7.86;100.00;101033.50;4999583;28;20034;-71
2022/12/28 07:16:09;;;;;;;5.50;1.23;;;;;;;7.89;100.00;101022.91;4978461;28;20100;-71
2022/12/28 07:18:34;;;;;;;4.47;1.17;;;;;;;7.82;100.00;101031.28;4966890;28;20107;-70
2022/12/28 07:21:02;;;;;;;3.67;1.35;;;;;;;7.85;100.00;101031.03;4963486;28;20032;-72
2022/12/28 07:23:30;;;;;;;1.88;1.15;;;;;;;7.68;100.00;101040.22;4968679;28;20114;-72
2022/12/28 07:25:57;;;;;;;3.67;1.33;;;;;;;7.71;100.00;101033.03;4982059;28;20034;-72
2022/12/28 07:28:23;;;;;;;2.60;1.13;;;;;;;7.83;100.00;101032.94;4968809;28;20667;-72
2022/12/28 07:30:49;;;;;;;4.13;1.10;;;;;;;7.79;100.00;101016.91;4982683;28;20105;-72
2022/12/28 07:33:14;;;;;;;10.80;1.30;;;;;;;7.79;100.00;101029.81;4986200;28;20034;-72
2022/12/28 07:35:40;;;;;;;5.57;1.33;;;;;;;7.83;100.00;101015.66;4983338;28;20424;-72
2022/12/28 07:38:05;;;;;;;4.03;1.40;;;;;;;7.82;100.00;101033.88;4983123;28;20069;-72
2022/12/28 07:40:31;;;;;;;5.28;1.85;;;;;;;7.79;100.00;101015.13;4984844;28;20038;-71
2022/12/28 07:42:58;;;;;;;5.47;1.85;;;;;;;7.79;100.00;101022.88;4978201;28;20035;-72
2022/12/28 07:45:24;;;;;;;8.48;1.50;;;;;;;7.79;100.00;101022.06;4968334;28;20550;-71
2022/12/28 07:47:49;;;;;;;5.38;0.90;;;;;;;7.77;100.00;101013.63;4985909;28;20030;-72
2022/12/28 07:50:15;;;;;;;9.02;1.63;;;;;;;7.87;100.00;101005.91;4969963;28;20035;-71
2022/12/28 07:52:40;;;;;;;2.47;1.05;;;;;;;7.77;100.00;101017.03;4963828;28;20033;-72
2022/12/28 07:55:06;;;;;;;2.08;1.20;;;;;;;7.68;100.00;101010.06;4969795;28;20045;-72
2022/12/28 07:57:33;;;;;;;2.17;1.00;;;;;;;7.72;100.00;101020.94;4984686;28;20041;-71
2022/12/28 07:59:58;;;;;;;2.65;0.90;;;;;;;7.83;100.00;101027.78;4985477;28;20543;-71
2022/12/28 08:02:24;;;;;;;2.92;1.20;;;;;;;7.79;100.00;101011.72;4963589;28;20026;-72
2022/12/28 08:04:49;;;;;;;5.03;1.10;;;;;;;7.75;100.00;101021.50;4980522;28;20042;-71
2022/12/28 08:07:15;;;;;;;8.02;0.88;;;;;;;7.74;100.00;101024.22;4979585;28;20046;-71
2022/12/28 08:09:40;;;;;;;6.70;1.65;;;;;;;7.78;100.00;101016.09;4957595;28;20050;-71
2022/12/28 08:12:06;;;;;;;4.45;1.25;;;;;;;7.84;100.00;101016.50;4962330;28;20049;-71
2022/12/28 08:14:32;;;;;;;5.40;1.00;;;;;;;7.87;100.00;101016.22;4962923;28;20046;-70
2022/12/28 08:16:57;;;;;;;3.15;0.90;;;;;;;7.94;100.00;101010.41;4966693;28;20035;-71
2022/12/28 08:19:22;;;;;;;3.13;0.90;;;;;;;7.89;100.00;101024.66;4965280;28;20035;-72
2022/12/28 08:21:48;;;;;;;1.75;0.98;;;;;;;7.93;100.00;101013.09;4950832;28;20413;-71
2022/12/28 08:24:16;;;;;;;8.23;1.73;;;;;;;7.91;100.00;101005.50;4980823;28;20042;-70
2022/12/28 08:26:43;;;;;;;4.30;0.82;;;;;;;7.92;100.00;101008.91;4967000;28;20117;-71
2022/12/28 08:29:11;;;;;;;3.75;0.75;;;;;;;7.99;100.00;101015.97;4964227;28;20058;-71
2022/12/28 08:31:39;;;;;;;5.10;1.27;;;;;;;7.82;100.00;101020.97;4982560;28;20405;-71
2022/12/28 08:34:07;;;;;;;3.45;1.13;;;;;;;7.99;100.00;101008.25;4951022;28;20031;-72
2022/12/28 08:36:33;;;;;;;5.05;1.30;;;;;;;7.95;100.00;101017.22;4999758;28;20510;-71
2022/12/28 08:39:00;;;;;;;3.63;1.02;;;;;;;8.03;100.00;101018.31;4985368;28;20045;-72
2022/12/28 08:41:27;;;;;;;7.38;1.08;;;;;;;8.08;100.00;101011.78;4984284;28;20129;-71
2022/12/28 08:43:53;;;;;;;6.88;1.10;;;;;;;8.09;100.00;101004.84;4982522;28;20049;-72
2022/12/28 08:46:24;;;;;;;3.17;0.95;;;;;;;8.08;100.00;101011.78;4982165;28;20039;-71
2022/12/28 08:48:51;;;;;;;4.30;0.80;;;;;;;8.04;100.00;101014.75;4996028;28;20072;-71
2022/12/28 08:51:19;;;;;;;1.30;0.80;;;;;;;8.14;100.00;101013.03;5001743;28;20065;-72
2022/12/28 08:53:45;;;;;;;3.28;1.10;;;;;;;8.17;100.00;100995.50;4986767;28;20197;-70
2022/12/28 08:56:15;;;;;;;3.85;1.02;;;;;;;8.15;100.00;101010.28;4979583;28;20991;-71
2022/12/28 08:58:42;;;;;;;2.58;0.60;;;;;;;8.15;100.00;101007.69;4980528;28;20026;-72
2022/12/28 09:01:10;;;;;;;4.45;0.80;;;;;;;8.19;100.00;101014.25;4982404;28;20046;-72
2022/12/28 09:03:37;;;;;;;1.80;1.08;;;;;;;8.22;100.00;101010.56;5003731;28;20061;-72
2022/12/28 09:06:09;;;;;;;7.57;2.10;;;;;;;8.27;99.94;101010.16;4984634;28;20034;-71
2022/12/28 09:08:36;;;;;;;6.43;2.33;;;;;;;8.37;99.54;101005.81;4989422;28;20030;-71
2022/12/28 09:11:04;;;;;;;5.13;1.58;;;;;;;8.39;99.08;101007.31;4987678;28;20022;-71
2022/12/28 09:13:29;;;;;;;9.27;2.30;;;;;;;8.28;99.81;101014.38;4987708;28;20038;-71
2022/12/28 09:16:00;;;;;;;8.57;2.95;;;;;;;8.33;99.51;101018.19;4986808;28;20061;-71
2022/12/28 09:18:26;;;;;;;2.72;1.45;;;;;;;8.34;99.04;101006.91;4985332;28;20031;-71
2022/12/28 09:20:51;;;;;;;10.60;2.83;;;;;;;8.26;99.26;101019.69;5001741;28;20453;-71
2022/12/28 09:23:17;;;;;;;5.47;2.05;;;;;;;8.23;100.00;101019.97;5001268;28;20126;-72
2022/12/28 09:25:42;;;;;;;3.75;1.60;;;;;;;8.36;99.34;101009.34;4971633;28;20038;-72
2022/12/28 09:28:08;;;;;;;3.47;1.58;;;;;;;8.38;99.24;101004.84;4971108;28;20096;-71
2022/12/28 09:30:33;;;;;;;4.50;1.65;;;;;;;8.38;98.91;101005.69;4987887;28;20085;-72
2022/12/28 09:35:43;;;;;;;12.80;3.47;;;;;;;8.28;99.69;100991.94;4971755;28;21620;-72
2022/12/28 09:38:08;;;;;;;15.35;5.10;;;;;;;8.40;99.50;101000.38;4974591;28;20053;-72
2022/12/28 09:40:35;;;;;;;10.07;3.10;;;;;;;8.52;98.94;101004.47;4967974;28;20408;-72
2022/12/28 09:43:01;;;;;;;3.20;1.60;;;;;;;8.50;97.85;101000.41;4952434;28;20042;-72
2022/12/28 09:45:27;;;;;;;4.85;2.10;;;;;;;8.48;98.30;100997.16;4976068;28;20069;-72
2022/12/28 09:48:00;;;;;;;5.18;1.90;;;;;;;8.49;98.31;100991.81;4987473;28;20030;-72
2022/12/28 09:50:31;;;;;;;11.05;5.07;;;;;;;8.67;97.08;100997.13;4980791;28;20523;-72
2022/12/28 09:53:31;;;;;;;5.10;1.77;;;;;;;8.79;96.93;100997.75;4998624;23;20026;-72
2022/12/28 09:56:05;;;;;;;4.15;1.95;;;;;;;8.75;96.25;100994.63;4982919;28;20050;-72
2022/12/28 09:58:33;;;;;;;6.75;2.65;;;;;;;8.80;96.53;100993.41;4986407;28;20126;-71
2022/12/28 10:01:01;;;;;;;4.32;0.88;;;;;;;8.79;96.55;100996.97;4987347;28;20100;-71
2022/12/28 10:03:32;;;;;;;2.92;1.13;;;;;;;8.83;96.84;100986.19;4998939;28;20078;-71
2022/12/28 10:05:59;;;;;;;7.60;1.85;;;;;;;8.83;96.39;100987.97;4982320;28;20046;-71
2022/12/28 10:08:26;;;;;;;3.35;1.42;;;;;;;8.95;95.92;100979.09;4966316;28;20109;-71
2022/12/28 10:10:54;;;;;;;8.38;2.65;;;;;;;8.84;96.35;100980.06;4981293;28;20039;-71
2022/12/28 10:13:22;;;;;;;8.93;2.30;;;;;;;8.94;96.23;100970.50;4971242;28;20829;-70
2022/12/28 10:15:49;;;;;;;7.05;1.85;;;;;;;9.01;96.05;100972.53;4962824;28;20035;-72
2022/12/28 10:18:21;;;;;;;3.17;1.70;;;;;;;9.00;95.71;100976.88;4977748;28;20388;-71
2022/12/28 10:20:47;;;;;;;12.18;3.08;;;;;;;9.07;95.16;100972.78;4965607;28;20043;-71
2022/12/28 10:23:20;;;;;;;7.32;1.58;;;;;;;9.02;95.91;100969.78;4998796;28;20113;-71
2022/12/28 10:25:47;;;;;;;8.40;2.70;;;;;;;9.11;95.10;100973.31;4941215;28;20475;-71
2022/12/28 10:28:13;;;;;;;9.00;2.60;;;;;;;9.11;94.67;100968.94;4983174;28;20035;-71
2022/12/28 10:31:00;;;;;;;3.35;1.20;;;;;;;9.12;94.43;100969.78;4963470;28;20039;-71
2022/12/28 10:33:26;;;;;;;5.60;2.13;;;;;;;9.11;94.82;100968.13;4962125;28;20031;-71
2022/12/28 10:35:54;;;;;;;8.23;3.03;;;;;;;9.18;94.00;100958.84;4961341;28;20038;-71
2022/12/28 10:38:23;;;;;;;4.70;1.67;;;;;;;9.16;94.04;100963.34;4965875;28;20181;-71
2022/12/28 10:41:14;;;;;;;8.48;2.05;;;;;;;9.21;94.13;100956.00;4965992;28;20073;-70
2022/12/28 10:43:43;;;;;;;4.07;1.27;;;;;;;9.27;93.76;100968.34;4988241;28;20058;-71
2022/12/28 10:46:22;;;;;;;3.13;1.00;;;;;;;9.21;94.16;100952.56;5001339;28;20038;-71
2022/12/28 10:49:02;;;;;;;3.45;1.40;;;;;;;9.25;93.61;100941.81;4966544;28;20081;-71
2022/12/28 10:51:28;;;;;;;2.55;0.90;;;;;;;9.29;93.85;100955.28;5000026;28;20050;-70
2022/12/28 10:53:57;;;;;;;3.53;1.05;;;;;;;9.32;92.84;100942.03;4944880;28;20070;-72
2022/12/28 10:56:27;;;;;;;5.03;1.58;;;;;;;9.33;93.17;100948.84;4981453;28;20043;-71
2022/12/28 10:59:13;;;;;;;0.88;0.70;;;;;;;9.35;93.01;100939.16;4999124;28;20493;-70
2022/12/28 11:01:41;;;;;;;4.50;1.77;;;;;;;9.30;93.03;100943.94;4965132;28;20070;-70
2022/12/28 11:04:19;;;;;;;4.70;2.08;;;;;;;9.42;92.67;100934.19;4980688;28;20101;-72
2022/12/28 11:06:59;;;;;;;4.80;1.60;;;;;;;9.46;92.01;100936.38;4966053;28;20049;-71
2022/12/28 11:09:28;;;;;;;4.55;1.10;;;;;;;9.48;92.15;100933.66;4964669;28;20050;-73
2022/12/28 11:12:14;;;;;;;2.42;0.98;;;;;;;9.51;91.69;100926.41;4982627;28;20035;-71
2022/12/28 11:14:40;;;;;;;5.53;1.20;;;;;;;9.53;91.59;100929.66;4987395;28;20054;-71
2022/12/28 11:17:19;;;;;;;7.97;1.10;;;;;;;9.54;91.39;100920.13;4943867;28;20133;-72
2022/12/28 11:19:48;;;;;;;7.78;1.40;;;;;;;9.52;91.71;100919.44;4945037;28;20130;-71
2022/12/28 11:22:25;;;;;;;3.35;1.25;;;;;;;9.59;90.81;100904.97;4946907;28;20062;-71
2022/12/28 11:24:51;;;;;;;5.03;1.27;;;;;;;9.51;91.27;100904.88;4928272;28;20121;-71
2022/12/28 11:27:21;;;;;;;5.35;1.00;;;;;;;9.65;90.84;100912.13;4957815;28;20039;-71
2022/12/28 11:29:49;;;;;;;4.70;1.10;;;;;;;9.60;90.97;100908.34;4972771;28;20404;-71
2022/12/28 11:32:42;;;;;;;3.95;1.05;;;;;;;9.62;90.86;100898.66;4969448;28;20046;-70
2022/12/28 11:35:18;;;;;;;4.15;1.02;;;;;;;9.60;90.91;100903.19;4957122;28;20628;-71
2022/12/28 11:37:51;;;;;;;4.80;0.93;;;;;;;9.66;89.92;100885.28;4966597;28;20110;-70
2022/12/28 11:40:46;;;;;;;4.90;1.00;;;;;;;9.57;90.52;100888.78;4946954;28;20049;-71
2022/12/28 11:43:28;;;;;;;1.05;0.77;;;;;;;9.51;90.97;100886.75;4974040;28;20031;-70
2022/12/28 11:45:59;;;;;;;4.47;1.10;;;;;;;9.59;90.43;100892.03;4967048;28;20518;-71
2022/12/28 11:48:40;;;;;;;4.85;0.70;;;;;;;9.63;90.42;100883.00;4963777;28;20520;-71
2022/12/28 11:51:22;;;;;;;2.10;0.80;;;;;;;9.63;89.73;100879.59;4961347;28;20062;-71
2022/12/28 11:53:59;;;;;;;6.85;1.00;;;;;;;9.63;89.98;100879.59;4978576;28;20508;-71
2022/12/28 11:56:44;;;;;;;2.50;0.93;;;;;;;9.70;89.48;100880.59;4963737;28;20038;-71
2022/12/28 11:59:26;;;;;;;2.78;1.05;;;;;;;9.66;89.22;100874.94;4995831;28;20047;-72
2022/12/28 12:01:59;;;;;;;3.47;0.80;;;;;;;9.63;89.15;100875.22;4963607;28;20440;-71
2022/12/28 12:04:32;;;;;;;3.70;0.88;;;;;;;9.59;89.43;100873.91;4963922;28;20034;-71